createdAt,value
2023-10-16T00:01:11.005Z,87.59
2023-10-16T00:03:44.147Z,88.24
2023-10-16T00:06:13.964Z,88.42
2023-10-16T00:08:49.767Z,88.88
2023-10-16T00:11:19.715Z,89.18
2023-10-16T00:13:50.736Z,89.44
2023-10-16T00:16:20.090Z,88.52
2023-10-16T00:18:52.011Z,89.72
2023-10-16T00:21:20.215Z,88.86
2023-10-16T00:23:48.274Z,89.68
2023-10-16T00:26:21.411Z,90.42
2023-10-16T00:29:02.039Z,90.58
2023-10-16T00:31:34.182Z,90.00
2023-10-16T00:34:05.044Z,90.02
2023-10-16T00:36:33.348Z,89.89
2023-10-16T00:39:14.600Z,89.76
2023-10-16T00:41:43.449Z,89.21
2023-10-16T00:44:11.631Z,89.06
2023-10-16T00:46:40.573Z,89.20
2023-10-16T00:49:10.914Z,89.46
2023-10-16T00:51:42.042Z,89.11
2023-10-16T00:54:17.973Z,89.33
2023-10-16T00:56:46.491Z,87.86
2023-10-16T00:59:17.230Z,87.47
2023-10-16T01:01:46.305Z,87.68
2023-10-16T01:04:17.764Z,88.29
2023-10-16T01:06:46.479Z,87.78
2023-10-16T01:09:23.796Z,87.56
2023-10-16T01:11:52.499Z,87.98
2023-10-16T01:14:21.156Z,88.66
2023-10-16T01:16:49.986Z,87.63
2023-10-16T01:19:21.440Z,87.95
2023-10-16T01:21:50.304Z,87.99
2023-10-16T01:24:21.201Z,89.43
2023-10-16T01:26:50.839Z,89.21
2023-10-16T01:29:18.900Z,89.63
2023-10-16T01:31:49.442Z,89.15
2023-10-16T01:34:17.544Z,90.54
2023-10-16T01:36:47.678Z,89.16
2023-10-16T01:39:30.051Z,89.76
2023-10-16T01:42:03.692Z,91.08
2023-10-16T01:44:32.214Z,90.61
2023-10-16T01:47:04.554Z,89.07
2023-10-16T01:49:32.535Z,89.74
2023-10-16T01:52:00.474Z,88.75
2023-10-16T01:54:31.202Z,88.88
2023-10-16T01:57:01.154Z,88.58
2023-10-16T01:59:29.104Z,88.94
2023-10-16T02:01:57.008Z,88.63
2023-10-16T02:04:25.146Z,88.97
2023-10-16T02:06:53.481Z,89.30
2023-10-16T02:09:25.082Z,89.49
2023-10-16T02:11:53.160Z,89.37
2023-10-16T02:14:22.537Z,88.93
2023-10-16T02:16:53.208Z,89.50
2023-10-16T02:19:22.117Z,89.31
2023-10-16T02:21:51.510Z,89.81
2023-10-16T02:24:19.825Z,89.09
2023-10-16T02:26:57.313Z,88.96
2023-10-16T02:29:30.011Z,89.92
2023-10-16T02:31:59.626Z,91.32
2023-10-16T02:34:27.761Z,90.42
2023-10-16T02:36:56.516Z,90.39
2023-10-16T02:39:37.777Z,90.47
2023-10-16T02:42:10.262Z,89.96
2023-10-16T02:44:44.546Z,89.85
2023-10-16T02:47:14.799Z,90.99
2023-10-16T02:49:49.128Z,90.76
2023-10-16T02:52:19.031Z,89.90
2023-10-16T02:54:49.068Z,90.01
2023-10-16T02:57:17.417Z,89.37
2023-10-16T02:59:47.216Z,88.76
2023-10-16T03:02:19.381Z,88.76
2023-10-16T03:04:52.566Z,89.06
2023-10-16T03:07:23.740Z,89.24
2023-10-16T03:09:52.929Z,88.97
2023-10-16T03:12:22.637Z,89.71
2023-10-16T03:14:58.448Z,90.37
2023-10-16T03:17:35.803Z,89.54
2023-10-16T03:20:10.655Z,88.40
2023-10-16T03:22:38.932Z,88.82
2023-10-16T03:25:25.755Z,88.85
2023-10-16T03:27:56.519Z,88.31
2023-10-16T03:30:29.622Z,88.35
2023-10-16T03:32:59.605Z,87.78
2023-10-16T03:35:31.561Z,88.03
2023-10-16T03:38:11.528Z,87.27
2023-10-16T03:40:39.621Z,87.39
2023-10-16T03:43:09.665Z,86.88
2023-10-16T03:45:42.456Z,86.99
2023-10-16T03:48:12.055Z,87.85
2023-10-16T03:50:40.874Z,88.02
2023-10-16T03:53:09.955Z,88.39
2023-10-16T03:55:45.853Z,88.87
2023-10-16T03:58:14.377Z,89.74
2023-10-16T04:00:54.382Z,89.24
2023-10-16T04:03:23.631Z,89.51
2023-10-16T04:05:52.814Z,89.46
2023-10-16T04:08:22.933Z,88.85
2023-10-16T04:10:51.018Z,88.98
2023-10-16T04:13:22.244Z,88.59
2023-10-16T04:16:12.464Z,87.75
2023-10-16T04:18:41.409Z,88.72
2023-10-16T04:21:27.760Z,87.10
2023-10-16T04:23:55.779Z,88.66
2023-10-16T04:26:50.938Z,89.86
2023-10-16T04:29:29.707Z,89.72
2023-10-16T04:31:59.331Z,88.65
2023-10-16T04:34:34.399Z,88.88
2023-10-16T04:37:21.767Z,87.44
2023-10-16T04:40:08.431Z,88.61
2023-10-16T04:43:08.745Z,88.61
2023-10-16T04:46:01.027Z,88.41
2023-10-16T04:48:49.676Z,88.91
2023-10-16T04:54:14.544Z,88.92
2023-10-16T04:57:25.817Z,89.15
2023-10-16T05:00:02.082Z,89.26
2023-10-16T05:02:41.564Z,89.41
2023-10-16T05:05:28.715Z,89.35
2023-10-16T05:08:08.420Z,88.86
2023-10-16T05:11:13.270Z,87.97
2023-10-16T05:13:56.598Z,89.15
2023-10-16T05:16:37.193Z,88.92
2023-10-16T05:19:05.843Z,89.28
2023-10-16T05:22:03.651Z,89.83
2023-10-16T05:24:49.179Z,89.27
2023-10-16T05:27:34.685Z,88.54
2023-10-16T05:30:20.188Z,88.99
2023-10-16T05:33:05.736Z,89.34
2023-10-16T05:35:51.283Z,89.87
2023-10-16T05:38:38.376Z,88.82
2023-10-16T05:41:24.607Z,89.12
2023-10-16T05:44:10.055Z,89.35
2023-10-16T05:46:55.298Z,90.00
2023-10-16T05:49:41.324Z,90.46
2023-10-16T05:52:27.914Z,91.35
2023-10-16T05:55:15.096Z,89.86
2023-10-16T05:58:03.027Z,90.25
2023-10-16T06:00:49.000Z,90.29
2023-10-16T06:03:34.628Z,90.32
2023-10-16T06:06:20.256Z,89.60
2023-10-16T06:09:05.982Z,89.48
2023-10-16T06:11:52.966Z,89.94
2023-10-16T06:14:21.811Z,89.49
2023-10-16T06:16:51.974Z,89.57
2023-10-16T06:19:19.981Z,89.38
2023-10-16T06:21:51.353Z,89.71
2023-10-16T06:24:34.331Z,89.43
2023-10-16T06:27:10.319Z,89.89
2023-10-16T06:29:48.362Z,89.29
2023-10-16T06:32:20.573Z,88.76
2023-10-16T06:34:49.341Z,88.72
2023-10-16T06:37:19.221Z,88.58
2023-10-16T06:39:48.007Z,88.56
2023-10-16T06:42:20.178Z,89.54
2023-10-16T06:44:51.565Z,89.11
2023-10-16T06:47:25.341Z,88.44
2023-10-16T06:49:53.406Z,88.92
2023-10-16T06:52:21.360Z,88.06
2023-10-16T06:54:49.925Z,87.46
2023-10-16T06:57:20.731Z,87.21
2023-10-16T06:59:52.073Z,86.91
2023-10-16T07:02:22.079Z,86.39
2023-10-16T07:04:50.349Z,86.67
2023-10-16T07:07:23.040Z,86.13
2023-10-16T07:09:51.251Z,85.61
2023-10-16T07:12:21.182Z,86.01
2023-10-16T07:14:57.585Z,85.93
2023-10-16T07:17:27.049Z,85.81
2023-10-16T07:20:00.693Z,84.66
2023-10-16T07:22:33.170Z,84.49
2023-10-16T07:25:27.139Z,83.92
2023-10-16T07:27:59.662Z,84.35
2023-10-16T07:30:29.023Z,83.01
2023-10-16T07:32:57.247Z,83.23
2023-10-16T07:35:25.370Z,82.42
2023-10-16T07:37:54.742Z,83.30
2023-10-16T07:40:24.956Z,83.95
2023-10-16T07:42:54.250Z,84.51
2023-10-16T07:45:23.772Z,83.42
2023-10-16T07:47:52.661Z,82.66
2023-10-16T07:50:21.088Z,81.47
2023-10-16T07:52:50.014Z,81.54
2023-10-16T07:55:20.675Z,81.69
2023-10-16T07:57:50.068Z,81.25
2023-10-16T08:00:27.009Z,80.03
2023-10-16T08:03:06.642Z,79.53
2023-10-16T08:05:35.041Z,78.76
2023-10-16T08:08:13.235Z,77.94
2023-10-16T08:10:43.946Z,77.86
2023-10-16T08:13:15.380Z,78.11
2023-10-16T08:15:50.761Z,76.68
2023-10-16T08:18:21.102Z,76.98
2023-10-16T08:21:01.754Z,76.39
2023-10-16T08:23:35.443Z,76.72
2023-10-16T08:26:15.647Z,77.65
2023-10-16T08:28:46.805Z,77.19
2023-10-16T08:31:25.349Z,75.55
2023-10-16T08:33:56.705Z,76.61
2023-10-16T08:36:25.117Z,77.17
2023-10-16T08:38:56.554Z,76.70
2023-10-16T08:41:43.145Z,75.34
2023-10-16T08:44:16.124Z,74.90
2023-10-16T08:46:53.842Z,75.18
2023-10-16T08:49:26.476Z,74.60
2023-10-16T08:51:56.236Z,74.80
2023-10-16T08:54:54.728Z,75.19
2023-10-16T08:57:23.551Z,74.63
2023-10-16T08:59:52.061Z,75.49
2023-10-16T09:02:23.062Z,75.01
2023-10-16T09:04:55.302Z,73.92
2023-10-16T09:07:25.645Z,73.08
2023-10-16T09:09:56.781Z,73.10
2023-10-16T09:12:28.159Z,72.77
2023-10-16T09:15:06.546Z,72.28
2023-10-16T09:17:36.416Z,73.30
2023-10-16T09:20:14.474Z,73.54
2023-10-16T09:22:46.838Z,73.29
2023-10-16T09:27:50.628Z,72.87
2023-10-16T09:30:22.061Z,72.13
2023-10-16T09:32:52.670Z,71.77
2023-10-16T09:35:31.542Z,69.97
2023-10-16T09:38:13.194Z,66.09
2023-10-16T09:40:45.427Z,66.76
2023-10-16T09:43:25.480Z,66.65
2023-10-16T09:46:17.357Z,65.89
2023-10-16T09:48:48.829Z,65.22
2023-10-16T09:51:18.368Z,67.35
2023-10-16T09:53:46.396Z,68.15
2023-10-16T09:56:18.682Z,68.05
2023-10-16T09:58:52.449Z,67.03
2023-10-16T10:01:30.542Z,66.03
2023-10-16T10:04:00.713Z,65.45
2023-10-16T10:06:36.374Z,65.24
2023-10-16T10:09:32.694Z,66.01
2023-10-16T10:12:14.537Z,66.06
2023-10-16T10:14:49.955Z,66.06
2023-10-16T10:17:22.171Z,65.52
2023-10-16T10:19:56.276Z,64.50
2023-10-16T10:22:28.706Z,64.97
2023-10-16T10:25:23.844Z,64.57
2023-10-16T10:27:55.411Z,64.53
2023-10-16T10:30:27.109Z,64.44
2023-10-16T10:32:57.161Z,64.54
2023-10-16T10:35:29.021Z,63.67
2023-10-16T10:38:18.573Z,61.98
2023-10-16T10:41:15.975Z,60.58
2023-10-16T10:43:49.216Z,62.28
2023-10-16T10:46:26.693Z,60.85
2023-10-16T10:48:58.554Z,62.23
2023-10-16T10:51:33.470Z,61.72
2023-10-16T10:54:05.080Z,63.52
2023-10-16T10:56:42.923Z,61.85
2023-10-16T10:59:12.080Z,63.43
2023-10-16T11:01:51.759Z,60.93
2023-10-16T11:04:22.492Z,61.96
2023-10-16T11:06:53.858Z,62.24
2023-10-16T11:09:28.223Z,62.77
2023-10-16T11:11:56.308Z,63.83
2023-10-16T11:14:35.854Z,62.55
2023-10-16T11:17:06.787Z,61.78
2023-10-16T11:19:46.303Z,61.17
2023-10-16T11:22:20.237Z,61.00
2023-10-16T11:24:50.737Z,60.71
2023-10-16T11:27:18.953Z,60.07
2023-10-16T11:29:47.532Z,59.00
2023-10-16T11:32:17.134Z,59.95
2023-10-16T11:34:45.996Z,60.07
2023-10-16T11:37:15.971Z,57.68
2023-10-16T11:39:48.605Z,56.27
2023-10-16T11:42:18.508Z,56.54
2023-10-16T11:44:46.430Z,54.54
2023-10-16T11:47:19.646Z,55.57
2023-10-16T11:49:54.936Z,55.66
2023-10-16T11:52:24.380Z,55.70
2023-10-16T11:54:57.805Z,54.64
2023-10-16T11:57:28.602Z,54.49
2023-10-16T11:59:57.498Z,54.47
2023-10-16T12:02:35.584Z,54.55
2023-10-16T12:05:07.184Z,55.67
2023-10-16T12:07:44.400Z,56.90
2023-10-16T12:10:16.682Z,57.67
2023-10-16T12:12:46.991Z,57.78
2023-10-16T12:15:15.043Z,58.80
2023-10-16T12:17:45.298Z,59.23
2023-10-16T12:20:14.197Z,59.22
2023-10-16T12:22:42.269Z,58.38
2023-10-16T12:25:11.100Z,57.39
2023-10-16T12:27:39.299Z,56.54
2023-10-16T12:30:14.642Z,55.45
2023-10-16T12:32:43.229Z,56.15
2023-10-16T12:35:13.274Z,54.54
2023-10-16T12:37:41.944Z,55.10
2023-10-16T12:40:25.627Z,55.12
2023-10-16T12:42:56.709Z,55.81
2023-10-16T12:45:27.350Z,54.34
2023-10-16T12:47:58.828Z,55.88
2023-10-16T12:50:28.909Z,55.90
2023-10-16T12:52:58.254Z,55.18
2023-10-16T12:55:26.468Z,54.85
2023-10-16T12:57:56.056Z,55.06
2023-10-16T13:00:25.039Z,54.41
2023-10-16T13:02:56.393Z,53.27
2023-10-16T13:05:25.992Z,52.67
2023-10-16T13:07:57.900Z,53.08
2023-10-16T13:10:28.445Z,52.99
2023-10-16T13:12:58.049Z,53.26
2023-10-16T13:15:26.956Z,53.10
2023-10-16T13:17:56.560Z,52.02
2023-10-16T13:20:28.853Z,52.85
2023-10-16T13:22:59.063Z,53.69
2023-10-16T13:25:32.406Z,54.28
2023-10-16T13:28:01.812Z,56.58
2023-10-16T13:30:32.662Z,58.02
2023-10-16T13:33:08.684Z,57.51
2023-10-16T13:35:40.603Z,57.05
2023-10-16T13:38:10.324Z,55.96
2023-10-16T13:40:39.830Z,55.66
2023-10-16T13:43:12.195Z,55.30
2023-10-16T13:45:41.622Z,55.41
2023-10-16T13:48:12.373Z,55.24
2023-10-16T13:50:42.063Z,55.15
2023-10-16T13:53:12.330Z,55.59
2023-10-16T13:55:41.176Z,55.46
2023-10-16T13:58:10.160Z,55.45
2023-10-16T14:00:39.698Z,55.50
2023-10-16T14:03:10.074Z,56.14
2023-10-16T14:05:45.929Z,55.65
2023-10-16T14:08:16.163Z,55.84
2023-10-16T14:10:50.944Z,55.92
2023-10-16T14:13:22.876Z,56.07
2023-10-16T14:15:52.315Z,56.71
2023-10-16T14:18:26.146Z,56.34
2023-10-16T14:20:57.853Z,56.54
2023-10-16T14:23:30.174Z,57.07
2023-10-16T14:26:00.491Z,56.49
2023-10-16T14:28:33.591Z,57.34
2023-10-16T14:31:03.046Z,56.22
2023-10-16T14:33:32.044Z,57.55
2023-10-16T14:36:02.851Z,57.43
2023-10-16T14:38:31.910Z,57.73
2023-10-16T14:41:05.757Z,57.92
2023-10-16T14:43:36.175Z,58.40
2023-10-16T14:46:05.231Z,57.79
2023-10-16T14:48:33.801Z,58.45
2023-10-16T14:51:06.174Z,58.28
2023-10-16T14:53:34.402Z,58.92
2023-10-16T14:56:02.376Z,58.25
2023-10-16T14:59:04.902Z,57.59
2023-10-16T15:01:21.018Z,58.12
2023-10-16T15:03:52.359Z,57.61
2023-10-16T15:06:22.024Z,57.68
2023-10-16T15:08:50.012Z,58.14
2023-10-16T15:11:21.729Z,58.39
2023-10-16T15:13:49.960Z,58.25
2023-10-16T15:16:18.091Z,58.34
2023-10-16T15:18:46.499Z,58.90
2023-10-16T15:21:14.398Z,59.07
2023-10-16T15:23:43.939Z,58.34
2023-10-16T15:26:11.950Z,58.20
2023-10-16T15:31:14.605Z,57.83
2023-10-16T15:33:45.002Z,58.68
2023-10-16T15:36:14.333Z,57.92
2023-10-16T15:38:44.899Z,58.27
2023-10-16T15:41:14.490Z,58.17
2023-10-16T15:43:48.197Z,58.24
2023-10-16T15:46:26.778Z,58.71
2023-10-16T15:48:56.397Z,59.53
2023-10-16T15:51:26.062Z,59.78
2023-10-16T15:53:56.089Z,60.18
2023-10-16T15:56:24.201Z,60.44
2023-10-16T15:58:52.598Z,60.96
2023-10-16T16:01:21.320Z,61.17
2023-10-16T16:03:49.772Z,61.92
2023-10-16T16:06:19.796Z,61.87
2023-10-16T16:08:48.034Z,61.84
2023-10-16T16:11:20.523Z,62.62
2023-10-16T16:13:50.805Z,62.58
2023-10-16T16:16:21.775Z,63.68
2023-10-16T16:18:50.016Z,63.81
2023-10-16T16:21:17.945Z,63.46
2023-10-16T16:23:45.847Z,64.43
2023-10-16T16:26:14.218Z,64.77
2023-10-16T16:28:47.362Z,64.90
2023-10-16T16:31:17.249Z,65.23
2023-10-16T16:33:45.743Z,65.66
2023-10-16T16:36:15.770Z,66.01
2023-10-16T16:38:44.306Z,66.51
2023-10-16T16:41:13.364Z,67.22
2023-10-16T16:43:43.438Z,67.98
2023-10-16T16:46:11.341Z,68.46
2023-10-16T16:48:39.405Z,67.94
2023-10-16T16:51:08.043Z,68.28
2023-10-16T16:53:36.872Z,68.29
2023-10-16T16:56:05.537Z,68.62
2023-10-16T16:58:34.120Z,68.54
2023-10-16T17:01:03.394Z,68.83
2023-10-16T17:03:31.504Z,68.84
2023-10-16T17:05:59.698Z,68.70
2023-10-16T17:08:27.591Z,69.85
2023-10-16T17:10:56.769Z,70.29
2023-10-16T17:13:25.380Z,71.35
2023-10-16T17:15:53.296Z,72.10
2023-10-16T17:18:22.653Z,72.42
2023-10-16T17:20:50.736Z,72.74
2023-10-16T17:23:18.635Z,72.49
2023-10-16T17:25:46.996Z,72.35
2023-10-16T17:28:18.066Z,72.96
2023-10-16T17:30:47.150Z,73.29
2023-10-16T17:33:15.572Z,73.44
2023-10-16T17:35:45.782Z,72.58
2023-10-16T17:38:14.245Z,71.79
2023-10-16T17:40:42.496Z,71.02
2023-10-16T17:43:10.884Z,71.79
2023-10-16T17:45:38.932Z,71.56
2023-10-16T17:48:08.540Z,71.00
2023-10-16T17:50:36.678Z,70.85
2023-10-16T17:53:12.273Z,71.08
2023-10-16T17:55:41.393Z,71.00
2023-10-16T17:58:09.387Z,70.22
2023-10-16T18:00:41.240Z,70.24
2023-10-16T18:03:09.457Z,70.26
2023-10-16T18:05:37.423Z,70.27
2023-10-16T18:08:10.487Z,69.63
2023-10-16T18:10:42.577Z,69.29
2023-10-16T18:13:10.572Z,69.69
2023-10-16T18:15:38.853Z,69.76
2023-10-16T18:18:07.709Z,69.72
2023-10-16T18:20:36.908Z,69.92
2023-10-16T18:23:07.010Z,69.29
2023-10-16T18:25:34.988Z,69.58
2023-10-16T18:28:02.998Z,69.67
2023-10-16T18:30:31.374Z,69.97
2023-10-16T18:32:59.801Z,70.29
2023-10-16T18:35:27.969Z,70.37
2023-10-16T18:37:55.947Z,70.01
2023-10-16T18:40:25.353Z,69.59
2023-10-16T18:42:53.438Z,69.78
2023-10-16T18:45:22.104Z,70.50
2023-10-16T18:47:51.457Z,70.97
2023-10-16T18:50:19.922Z,71.23
2023-10-16T18:52:48.813Z,71.49
2023-10-16T18:55:16.917Z,71.44
2023-10-16T18:57:46.330Z,71.49
2023-10-16T19:00:16.779Z,71.85
2023-10-16T19:02:45.825Z,71.87
2023-10-16T19:05:16.676Z,71.89
2023-10-16T19:07:45.285Z,71.84
2023-10-16T19:10:13.585Z,72.83
2023-10-16T19:12:42.610Z,72.84
2023-10-16T19:15:13.268Z,72.87
2023-10-16T19:17:41.158Z,73.27
2023-10-16T19:20:10.693Z,73.22
2023-10-16T19:22:38.857Z,73.12
2023-10-16T19:25:12.147Z,73.53
2023-10-16T19:27:40.632Z,73.88
2023-10-16T19:30:10.738Z,73.74
2023-10-16T19:32:45.856Z,74.40
2023-10-16T19:35:15.976Z,74.52
2023-10-16T19:37:44.141Z,74.56
2023-10-16T19:40:16.641Z,74.78
2023-10-16T19:42:45.543Z,74.57
2023-10-16T19:45:18.972Z,74.93
2023-10-16T19:47:50.221Z,75.13
2023-10-16T19:50:18.752Z,74.82
2023-10-16T19:52:47.845Z,75.15
2023-10-16T19:55:20.597Z,75.00
2023-10-16T19:57:49.117Z,75.37
2023-10-16T20:00:22.745Z,75.72
2023-10-16T20:02:53.688Z,75.83
2023-10-16T20:05:21.872Z,76.47
2023-10-16T20:07:53.361Z,75.92
2023-10-16T20:10:21.668Z,76.58
2023-10-16T20:12:51.724Z,76.65
2023-10-16T20:15:21.736Z,77.38
2023-10-16T20:17:52.176Z,77.23
2023-10-16T20:20:31.547Z,77.63
2023-10-16T20:23:03.169Z,78.54
2023-10-16T20:25:32.221Z,78.55
2023-10-16T20:28:01.208Z,79.11
2023-10-16T20:30:29.913Z,79.10
2023-10-16T20:33:00.283Z,79.37
2023-10-16T20:35:29.885Z,79.66
2023-10-16T20:37:58.019Z,79.40
2023-10-16T20:40:27.642Z,79.79
2023-10-16T20:42:57.424Z,79.98
2023-10-16T20:45:26.734Z,80.40
2023-10-16T20:47:57.580Z,80.06
2023-10-16T20:50:28.446Z,80.45
2023-10-16T20:52:57.017Z,79.96
2023-10-16T20:55:25.657Z,80.03
2023-10-16T20:57:55.652Z,79.03
2023-10-16T21:00:28.897Z,79.20
2023-10-16T21:02:59.714Z,78.45
2023-10-16T21:05:30.959Z,78.97
2023-10-16T21:08:00.117Z,78.43
2023-10-16T21:10:29.637Z,78.59
2023-10-16T21:12:58.775Z,78.13
2023-10-16T21:15:26.731Z,78.19
2023-10-16T21:17:55.626Z,78.61
2023-10-16T21:20:23.994Z,78.08
2023-10-16T21:22:55.281Z,78.74
2023-10-16T21:25:25.732Z,78.35
2023-10-16T21:27:55.053Z,78.33
2023-10-16T21:30:24.130Z,79.01
2023-10-16T21:32:53.803Z,79.19
2023-10-16T21:35:24.201Z,79.17
2023-10-16T21:37:54.069Z,79.08
2023-10-16T21:40:23.925Z,78.96
2023-10-16T21:42:52.955Z,79.62
2023-10-16T21:45:23.637Z,79.76
2023-10-16T21:47:53.090Z,79.45
2023-10-16T21:50:21.407Z,79.59
2023-10-16T21:52:49.256Z,80.01
2023-10-16T21:55:18.713Z,79.97
2023-10-16T21:57:46.678Z,80.01
2023-10-16T22:00:29.166Z,80.12
2023-10-16T22:02:57.634Z,80.53
2023-10-16T22:05:25.736Z,80.33
2023-10-16T22:07:53.741Z,80.32
2023-10-16T22:10:23.216Z,80.25
2023-10-16T22:12:51.261Z,80.46
2023-10-16T22:15:20.617Z,80.46
2023-10-16T22:17:50.432Z,80.38
2023-10-16T22:20:21.546Z,80.20
2023-10-16T22:22:49.559Z,80.30
2023-10-16T22:25:17.767Z,80.73
2023-10-16T22:27:48.451Z,80.21
2023-10-16T22:30:16.891Z,80.89
2023-10-16T22:32:45.519Z,80.89
2023-10-16T22:35:13.653Z,80.42
2023-10-16T22:37:43.399Z,81.20
2023-10-16T22:40:15.912Z,80.55
2023-10-16T22:42:44.832Z,80.18
2023-10-16T22:45:16.630Z,79.64
2023-10-16T22:47:45.582Z,79.33
2023-10-16T22:50:13.681Z,79.51
2023-10-16T22:52:41.780Z,79.00
2023-10-16T22:55:11.215Z,78.87
2023-10-16T22:57:39.250Z,78.69
2023-10-16T23:00:13.503Z,79.09
2023-10-16T23:02:43.307Z,79.45
2023-10-16T23:05:15.346Z,79.87
2023-10-16T23:07:45.043Z,79.58
2023-10-16T23:10:14.715Z,80.62
2023-10-16T23:12:45.030Z,80.34
2023-10-16T23:15:20.422Z,80.17
2023-10-16T23:17:51.754Z,80.80
2023-10-16T23:20:25.698Z,80.27
2023-10-16T23:22:54.775Z,80.21
2023-10-16T23:25:23.348Z,80.05
2023-10-16T23:27:53.351Z,79.67
2023-10-16T23:30:26.850Z,79.90
2023-10-16T23:32:56.664Z,79.24
2023-10-16T23:35:26.577Z,80.26
2023-10-16T23:37:54.675Z,80.10
2023-10-16T23:40:40.861Z,79.72
2023-10-16T23:43:12.199Z,79.44
2023-10-16T23:45:41.278Z,79.16
2023-10-16T23:48:20.412Z,78.28
2023-10-16T23:50:51.937Z,79.39
2023-10-16T23:53:32.965Z,79.18
2023-10-16T23:56:11.101Z,78.87
2023-10-16T23:58:43.851Z,78.79
